createdAt,value
2023-04-04T00:00:52.782Z,10.57
2023-04-04T00:03:21.406Z,5.22
2023-04-04T00:05:49.684Z,8.50
2023-04-04T00:08:19.205Z,7.35
2023-04-04T00:10:47.299Z,7.88
2023-04-04T00:13:15.775Z,6.20
2023-04-04T00:15:43.837Z,5.40
2023-04-04T00:18:12.056Z,7.95
2023-04-04T00:20:40.382Z,8.40
2023-04-04T00:23:11.353Z,7.45
2023-04-04T00:25:40.817Z,10.32
2023-04-04T00:28:08.904Z,10.02
2023-04-04T00:30:37.055Z,8.98
2023-04-04T00:33:06.535Z,8.43
2023-04-04T00:35:35.018Z,5.60
2023-04-04T00:38:04.068Z,4.38
2023-04-04T00:40:32.168Z,8.70
2023-04-04T00:43:02.210Z,9.38
2023-04-04T00:45:30.282Z,8.50
2023-04-04T00:47:58.910Z,7.50
2023-04-04T00:50:27.242Z,7.60
2023-04-04T00:52:56.343Z,8.85
2023-04-04T00:55:24.543Z,9.20
2023-04-04T00:57:52.934Z,13.73
2023-04-04T01:00:23.118Z,9.07
2023-04-04T01:02:51.925Z,8.20
2023-04-04T01:05:20.117Z,6.15
2023-04-04T01:07:48.208Z,17.08
2023-04-04T01:10:16.324Z,12.32
2023-04-04T01:12:44.679Z,9.38
2023-04-04T01:15:13.079Z,8.43
2023-04-04T01:17:44.685Z,12.80
2023-04-04T01:20:15.738Z,7.30
2023-04-04T01:22:45.058Z,10.57
2023-04-04T01:25:13.201Z,7.20
2023-04-04T01:27:42.774Z,9.95
2023-04-04T01:30:11.982Z,11.32
2023-04-04T01:32:45.674Z,8.18
2023-04-04T01:35:22.834Z,11.88
2023-04-04T01:37:56.396Z,9.00
2023-04-04T01:40:28.232Z,8.10
2023-04-04T01:42:58.720Z,15.63
2023-04-04T01:45:29.675Z,10.20
2023-04-04T01:47:58.306Z,8.15
2023-04-04T01:50:27.236Z,11.27
2023-04-04T01:52:55.514Z,12.75
2023-04-04T01:55:23.606Z,9.90
2023-04-04T01:57:52.300Z,9.93
2023-04-04T02:00:22.158Z,11.15
2023-04-04T02:02:50.736Z,12.05
2023-04-04T02:05:18.914Z,8.98
2023-04-04T02:07:50.085Z,7.45
2023-04-04T02:10:18.359Z,10.25
2023-04-04T02:12:46.779Z,9.55
2023-04-04T02:15:14.964Z,7.07
2023-04-04T02:17:48.774Z,7.82
2023-04-04T02:20:19.495Z,8.45
2023-04-04T02:22:57.690Z,10.15
2023-04-04T02:25:26.439Z,9.38
2023-04-04T02:27:54.492Z,8.13
2023-04-04T02:30:22.644Z,10.18
2023-04-04T02:32:53.068Z,9.00
2023-04-04T02:35:21.351Z,10.77
2023-04-04T02:37:49.401Z,10.90
2023-04-04T02:40:17.631Z,17.90
2023-04-04T02:42:45.976Z,10.05
2023-04-04T02:45:14.887Z,11.95
2023-04-04T02:47:43.782Z,13.85
2023-04-04T02:50:13.468Z,9.15
2023-04-04T02:52:41.546Z,12.02
2023-04-04T02:55:10.600Z,10.93
2023-04-04T02:57:38.944Z,9.57
2023-04-04T03:00:08.486Z,9.70
2023-04-04T03:02:36.737Z,8.88
2023-04-04T03:05:05.328Z,11.82
2023-04-04T03:07:34.788Z,15.82
2023-04-04T03:10:02.874Z,9.15
2023-04-04T03:12:31.346Z,8.90
2023-04-04T03:14:59.409Z,16.58
2023-04-04T03:17:27.604Z,11.82
2023-04-04T03:19:55.746Z,9.38
2023-04-04T03:22:23.889Z,12.95
2023-04-04T03:24:53.432Z,9.93
2023-04-04T03:27:22.133Z,11.10
2023-04-04T03:29:50.302Z,13.23
2023-04-04T03:32:19.253Z,7.93
2023-04-04T03:34:47.499Z,10.85
2023-04-04T03:37:15.611Z,14.57
2023-04-04T03:39:43.691Z,10.32
2023-04-04T03:42:13.313Z,10.10
2023-04-04T03:44:41.751Z,12.18
2023-04-04T03:47:09.886Z,10.00
2023-04-04T03:49:38.018Z,13.93
2023-04-04T03:52:06.726Z,12.38
2023-04-04T03:54:35.723Z,10.85
2023-04-04T03:57:03.835Z,10.95
2023-04-04T03:59:33.329Z,8.20
2023-04-04T04:02:01.387Z,10.93
2023-04-04T04:04:29.488Z,8.15
2023-04-04T04:06:57.639Z,11.15
2023-04-04T04:09:26.214Z,8.68
2023-04-04T04:11:54.300Z,9.85
2023-04-04T04:14:22.381Z,10.32
2023-04-04T04:16:52.228Z,12.07
2023-04-04T04:19:20.530Z,13.40
2023-04-04T04:21:49.161Z,14.18
2023-04-04T04:24:17.235Z,9.93
2023-04-04T04:26:45.496Z,12.10
2023-04-04T04:29:13.558Z,12.57
2023-04-04T04:31:41.824Z,11.98
2023-04-04T04:34:11.340Z,12.90
2023-04-04T04:36:39.545Z,19.25
2023-04-04T04:39:07.774Z,8.73
2023-04-04T04:41:36.778Z,16.45
2023-04-04T04:44:04.982Z,11.65
2023-04-04T04:46:33.248Z,11.20
2023-04-04T04:49:01.392Z,18.00
2023-04-04T04:51:31.062Z,13.82
2023-04-04T04:53:59.325Z,11.90
2023-04-04T04:56:27.425Z,9.27
2023-04-04T04:58:55.489Z,10.15
2023-04-04T05:01:23.681Z,13.70
2023-04-04T05:03:53.374Z,11.75
2023-04-04T05:06:21.777Z,11.75
2023-04-04T05:08:51.269Z,16.42
2023-04-04T05:11:19.388Z,13.57
2023-04-04T05:13:47.490Z,11.43
2023-04-04T05:16:15.687Z,17.52
2023-04-04T05:18:43.807Z,16.88
2023-04-04T05:21:12.058Z,17.38
2023-04-04T05:23:40.137Z,11.38
2023-04-04T05:26:09.779Z,21.88
2023-04-04T05:28:37.866Z,13.60
2023-04-04T05:31:06.076Z,9.77
2023-04-04T05:33:34.414Z,14.48
2023-04-04T05:36:02.800Z,10.00
2023-04-04T05:38:31.394Z,16.38
2023-04-04T05:40:59.721Z,26.48
2023-04-04T05:43:29.201Z,13.02
2023-04-04T05:45:57.480Z,20.10
2023-04-04T05:48:25.639Z,16.50
2023-04-04T05:50:53.766Z,12.95
2023-04-04T05:53:22.520Z,13.70
2023-04-04T05:55:53.717Z,14.85
2023-04-04T05:58:22.015Z,11.45
2023-04-04T06:00:51.659Z,13.57
2023-04-04T06:03:21.863Z,21.85
2023-04-04T06:05:52.480Z,11.52
2023-04-04T06:08:20.970Z,24.15
2023-04-04T06:10:49.113Z,18.00
2023-04-04T06:13:17.192Z,31.83
2023-04-04T06:15:45.492Z,18.70
2023-04-04T06:18:16.694Z,13.88
2023-04-04T06:20:44.853Z,16.75
2023-04-04T06:23:13.033Z,17.35
2023-04-04T06:25:41.214Z,12.75
2023-04-04T06:28:09.734Z,15.43
2023-04-04T06:30:39.257Z,10.32
2023-04-04T06:33:07.958Z,15.80
2023-04-04T06:35:37.458Z,18.40
2023-04-04T06:38:06.680Z,16.90
2023-04-04T06:40:34.805Z,14.65
2023-04-04T06:43:03.285Z,18.85
2023-04-04T06:45:33.637Z,15.65
2023-04-04T06:48:02.443Z,19.30
2023-04-04T06:50:32.376Z,18.30
2023-04-04T06:53:02.544Z,11.80
2023-04-04T06:55:30.720Z,16.67
2023-04-04T06:57:59.461Z,16.23
2023-04-04T07:00:27.678Z,19.90
2023-04-04T07:03:00.263Z,12.85
2023-04-04T07:05:28.602Z,16.80
2023-04-04T07:07:57.240Z,12.95
2023-04-04T07:10:27.440Z,17.80
2023-04-04T07:12:55.638Z,15.02
2023-04-04T07:15:23.752Z,13.48
2023-04-04T07:17:51.909Z,17.13
2023-04-04T07:20:20.112Z,12.75
2023-04-04T07:22:48.189Z,12.38
2023-04-04T07:25:16.324Z,15.00
2023-04-04T07:27:46.302Z,17.45
2023-04-04T07:30:15.535Z,17.20
2023-04-04T07:32:43.926Z,16.02
2023-04-04T07:35:12.062Z,20.60
2023-04-04T07:37:40.648Z,17.30
2023-04-04T07:40:09.819Z,19.40
2023-04-04T07:42:38.777Z,16.63
2023-04-04T07:45:10.176Z,17.13
2023-04-04T07:47:38.575Z,13.00
2023-04-04T07:50:07.911Z,20.65
2023-04-04T07:52:36.206Z,16.48
2023-04-04T07:55:05.897Z,11.93
2023-04-04T07:57:34.048Z,14.05
2023-04-04T08:00:02.510Z,13.10
2023-04-04T08:02:32.033Z,12.88
2023-04-04T08:05:00.186Z,10.63
2023-04-04T08:07:30.289Z,14.88
2023-04-04T08:09:58.638Z,12.07
2023-04-04T08:12:26.724Z,10.70
2023-04-04T08:14:54.832Z,9.98
2023-04-04T08:17:23.285Z,12.55
2023-04-04T08:19:52.902Z,7.20
2023-04-04T08:22:21.079Z,5.10
2023-04-04T08:24:49.182Z,3.58
2023-04-04T08:27:17.421Z,8.18
2023-04-04T08:29:45.736Z,9.68
2023-04-04T08:32:14.791Z,4.18
2023-04-04T08:34:43.079Z,7.75
2023-04-04T08:37:12.577Z,9.38
2023-04-04T08:39:40.776Z,6.47
2023-04-04T08:42:09.501Z,4.90
2023-04-04T08:44:38.620Z,9.20
2023-04-04T08:47:09.183Z,7.97
2023-04-04T08:49:40.151Z,4.45
2023-04-04T08:52:08.585Z,7.40
2023-04-04T08:54:39.364Z,6.10
2023-04-04T08:57:08.535Z,8.68
2023-04-04T08:59:37.035Z,5.93
2023-04-04T09:02:19.101Z,5.18
2023-04-04T09:05:02.442Z,5.10
2023-04-04T09:07:34.146Z,6.78
2023-04-04T09:10:05.148Z,9.43
2023-04-04T09:12:34.002Z,4.22
2023-04-04T09:15:03.499Z,4.63
2023-04-04T09:17:31.612Z,9.48
2023-04-04T09:20:04.550Z,5.75
2023-04-04T09:22:32.741Z,10.70
2023-04-04T09:25:01.410Z,7.07
2023-04-04T09:27:30.907Z,7.13
2023-04-04T09:30:05.682Z,4.75
2023-04-04T09:32:34.337Z,7.70
2023-04-04T09:35:02.448Z,4.88
2023-04-04T09:37:30.605Z,4.95
2023-04-04T09:39:59.181Z,10.13
2023-04-04T09:42:27.585Z,7.95
2023-04-04T09:44:57.227Z,3.05
2023-04-04T09:49:59.623Z,6.32
2023-04-04T09:52:28.333Z,7.20
2023-04-04T09:54:58.296Z,6.60
2023-04-04T09:57:27.883Z,6.10
2023-04-04T10:00:01.583Z,3.33
2023-04-04T10:02:32.191Z,5.82
2023-04-04T10:07:33.546Z,5.40
2023-04-04T10:10:03.874Z,3.15
2023-04-04T10:12:33.051Z,5.85
2023-04-04T10:15:03.330Z,4.32
2023-04-04T10:17:32.324Z,2.95
2023-04-04T10:20:02.375Z,7.95
2023-04-04T10:22:30.491Z,3.65
2023-04-04T10:24:59.336Z,6.22
2023-04-04T10:27:28.023Z,9.05
2023-04-04T10:29:58.131Z,6.15
2023-04-04T10:32:34.988Z,4.75
2023-04-04T10:35:05.468Z,8.13
2023-04-04T10:37:36.919Z,5.97
2023-04-04T10:40:08.833Z,3.92
2023-04-04T10:42:40.881Z,2.85
2023-04-04T10:45:20.370Z,3.95
2023-04-04T10:47:52.497Z,4.38
2023-04-04T10:50:21.918Z,5.57
2023-04-04T10:52:50.517Z,5.35
2023-04-04T10:55:18.728Z,4.50
2023-04-04T10:57:51.886Z,5.13
2023-04-04T11:00:23.465Z,5.45
2023-04-04T11:02:56.885Z,2.83
2023-04-04T11:05:26.732Z,7.03
2023-04-04T11:10:31.923Z,3.40
2023-04-04T11:13:12.715Z,6.63
2023-04-04T11:15:55.709Z,5.80
2023-04-04T11:18:48.806Z,5.15
2023-04-04T11:21:18.436Z,10.38
2023-04-04T11:24:14.277Z,5.90
2023-04-04T11:26:45.423Z,6.40
2023-04-04T11:29:22.317Z,3.10
2023-04-04T11:31:50.793Z,7.93
2023-04-04T11:34:33.616Z,4.78
2023-04-04T11:37:16.555Z,6.53
2023-04-04T11:39:56.614Z,3.33
2023-04-04T11:42:24.781Z,3.33
2023-04-04T11:45:07.012Z,4.38
2023-04-04T11:47:35.757Z,5.13
2023-04-04T11:50:10.907Z,5.15
2023-04-04T11:52:39.578Z,5.75
2023-04-04T11:55:17.239Z,5.00
2023-04-04T11:57:45.406Z,5.68
2023-04-04T12:00:16.127Z,4.70
2023-04-04T12:02:44.399Z,4.20
2023-04-04T12:05:14.625Z,5.43
2023-04-04T12:07:42.953Z,5.43
2023-04-04T12:10:12.003Z,3.45
2023-04-04T12:12:41.502Z,2.90
2023-04-04T12:15:17.462Z,6.00
2023-04-04T12:17:46.423Z,5.07
2023-04-04T12:20:17.322Z,6.75
2023-04-04T12:22:48.655Z,5.20
2023-04-04T12:25:17.070Z,6.95
2023-04-04T12:27:46.126Z,4.93
2023-04-04T12:30:16.511Z,5.35
2023-04-04T12:32:45.423Z,5.07
2023-04-04T12:35:13.639Z,7.07
2023-04-04T12:37:58.237Z,8.00
2023-04-04T12:40:30.068Z,5.85
2023-04-04T12:42:58.710Z,5.50
2023-04-04T12:45:28.400Z,7.30
2023-04-04T12:47:58.053Z,6.68
2023-04-04T12:50:28.221Z,6.03
2023-04-04T12:53:13.241Z,7.47
2023-04-04T12:55:47.891Z,4.57
2023-04-04T12:58:17.244Z,7.20
2023-04-04T13:00:45.641Z,5.93
2023-04-04T13:03:15.665Z,4.38
2023-04-04T13:05:45.055Z,3.95
2023-04-04T13:08:15.619Z,2.85
2023-04-04T13:11:04.788Z,7.15
2023-04-04T13:13:37.461Z,5.25
2023-04-04T13:16:07.966Z,2.35
2023-04-04T13:18:38.871Z,7.95
2023-04-04T13:21:08.532Z,6.07
2023-04-04T13:23:40.459Z,6.80
2023-04-04T13:26:09.798Z,6.70
2023-04-04T13:28:37.925Z,5.50
2023-04-04T13:31:06.633Z,6.28
2023-04-04T13:33:35.244Z,4.93
2023-04-04T13:36:03.437Z,2.42
2023-04-04T13:38:32.315Z,6.97
2023-04-04T13:41:02.052Z,8.25
2023-04-04T13:43:30.193Z,7.05
2023-04-04T13:45:58.375Z,9.30
2023-04-04T13:48:27.128Z,6.75
2023-04-04T13:50:55.750Z,6.32
2023-04-04T13:53:23.933Z,4.28
2023-04-04T13:56:16.034Z,8.57
2023-04-04T13:58:42.051Z,4.90
2023-04-04T14:01:10.217Z,5.10
2023-04-04T14:03:38.504Z,7.63
2023-04-04T14:06:10.725Z,3.47
2023-04-04T14:08:39.994Z,4.53
2023-04-04T14:11:08.278Z,4.97
2023-04-04T14:13:36.778Z,6.63
2023-04-04T14:16:08.090Z,3.40
2023-04-04T14:18:36.370Z,2.42
2023-04-04T14:21:04.931Z,4.30
2023-04-04T14:23:33.181Z,4.82
2023-04-04T14:26:01.248Z,9.30
2023-04-04T14:28:29.465Z,3.97
2023-04-04T14:30:57.577Z,7.68
2023-04-04T14:33:27.653Z,4.93
2023-04-04T14:35:55.732Z,9.73
2023-04-04T14:38:23.834Z,7.53
2023-04-04T14:40:52.433Z,7.13
2023-04-04T14:43:20.714Z,6.53
2023-04-04T14:45:48.823Z,5.63
2023-04-04T14:48:16.981Z,4.90
2023-04-04T14:50:47.351Z,7.20
2023-04-04T14:53:15.998Z,5.32
2023-04-04T14:55:44.179Z,4.90
2023-04-04T14:58:13.185Z,4.45
2023-04-04T15:00:41.289Z,4.80
2023-04-04T15:03:09.431Z,8.63
2023-04-04T15:05:37.631Z,7.78
2023-04-04T15:08:07.147Z,4.15
2023-04-04T15:10:35.873Z,6.10
2023-04-04T15:13:04.088Z,5.00
2023-04-04T15:15:32.594Z,3.70
2023-04-04T15:18:03.415Z,4.78
2023-04-04T15:20:31.681Z,3.83
2023-04-04T15:22:59.835Z,9.88
2023-04-04T15:25:29.864Z,4.88
2023-04-04T15:27:57.989Z,6.15
2023-04-04T15:30:27.079Z,9.52
2023-04-04T15:32:56.348Z,7.63
2023-04-04T15:35:24.924Z,6.07
2023-04-04T15:37:53.022Z,4.38
2023-04-04T15:40:21.461Z,4.10
2023-04-04T15:42:51.342Z,3.55
2023-04-04T15:45:19.423Z,5.25
2023-04-04T15:47:47.606Z,4.93
2023-04-04T15:50:15.753Z,5.10
2023-04-04T15:52:43.890Z,6.35
2023-04-04T15:55:16.801Z,7.30
2023-04-04T15:57:45.038Z,7.13
2023-04-04T16:00:16.970Z,4.82
2023-04-04T16:02:45.226Z,8.40
2023-04-04T16:05:13.445Z,6.78
2023-04-04T16:07:41.506Z,8.90
2023-04-04T16:10:10.994Z,7.82
2023-04-04T16:12:39.085Z,9.88
2023-04-04T16:15:08.772Z,8.55
2023-04-04T16:17:38.300Z,13.75
2023-04-04T16:20:07.946Z,8.75
2023-04-04T16:22:36.055Z,6.85
2023-04-04T16:25:04.171Z,6.60
2023-04-04T16:27:32.331Z,8.80
2023-04-04T16:30:00.747Z,5.50
2023-04-04T16:32:29.021Z,10.25
2023-04-04T16:34:58.748Z,7.63
2023-04-04T16:37:26.965Z,6.47
2023-04-04T16:39:56.574Z,7.35
2023-04-04T16:42:24.921Z,8.02
2023-04-04T16:44:53.025Z,5.50
2023-04-04T16:47:21.202Z,9.15
2023-04-04T16:49:49.293Z,6.68
2023-04-04T16:52:18.847Z,6.40
2023-04-04T16:54:46.957Z,4.88
2023-04-04T16:57:15.095Z,6.00
2023-04-04T16:59:43.709Z,8.90
2023-04-04T17:02:11.833Z,4.40
2023-04-04T17:04:41.893Z,6.63
2023-04-04T17:07:10.438Z,6.32
2023-04-04T17:09:40.701Z,9.35
2023-04-04T17:12:09.212Z,3.85
2023-04-04T17:14:37.582Z,6.93
2023-04-04T17:17:05.823Z,7.13
2023-04-04T17:19:35.272Z,6.95
2023-04-04T17:22:03.901Z,10.18
2023-04-04T17:24:32.134Z,6.50
2023-04-04T17:27:02.758Z,5.85
2023-04-04T17:29:30.944Z,7.20
2023-04-04T17:31:59.865Z,6.55
2023-04-04T17:34:28.359Z,10.98
2023-04-04T17:36:56.812Z,6.03
2023-04-04T17:39:25.213Z,6.78
2023-04-04T17:41:53.888Z,9.50
2023-04-04T17:44:23.531Z,6.72
2023-04-04T17:46:51.777Z,10.07
2023-04-04T17:49:20.706Z,4.03
2023-04-04T17:51:49.318Z,5.75
2023-04-04T17:54:17.842Z,5.22
2023-04-04T17:56:47.137Z,5.40
2023-04-04T17:59:15.813Z,12.38
2023-04-04T18:01:45.747Z,6.45
2023-04-04T18:04:13.883Z,8.73
2023-04-04T18:06:42.157Z,9.35
2023-04-04T18:09:10.743Z,9.63
2023-04-04T18:11:40.880Z,11.18
2023-04-04T18:14:09.224Z,5.82
2023-04-04T18:16:40.376Z,6.97
2023-04-04T18:19:11.039Z,10.10
2023-04-04T18:21:39.452Z,12.63
2023-04-04T18:24:11.149Z,8.50
2023-04-04T18:26:39.414Z,8.57
2023-04-04T18:29:08.337Z,8.68
2023-04-04T18:31:36.669Z,12.98
2023-04-04T18:34:04.819Z,11.00
2023-04-04T18:36:36.386Z,11.00
2023-04-04T18:39:04.991Z,8.30
2023-04-04T18:41:33.747Z,8.85
2023-04-04T18:44:02.163Z,15.95
2023-04-04T18:46:30.352Z,11.95
2023-04-04T18:48:58.473Z,11.02
2023-04-04T18:51:26.713Z,15.68
2023-04-04T18:53:56.337Z,11.88
2023-04-04T18:56:24.459Z,11.40
2023-04-04T18:58:52.564Z,15.20
2023-04-04T19:01:20.756Z,11.48
2023-04-04T19:03:51.461Z,11.85
2023-04-04T19:06:19.981Z,11.38
2023-04-04T19:08:49.188Z,12.02
2023-04-04T19:11:18.684Z,14.88
2023-04-04T19:13:46.799Z,14.98
2023-04-04T19:16:14.908Z,10.98
2023-04-04T19:18:44.251Z,7.93
2023-04-04T19:21:12.364Z,13.15
2023-04-04T19:23:40.816Z,8.48
2023-04-04T19:26:08.998Z,11.80
2023-04-04T19:28:38.488Z,6.72
2023-04-04T19:31:10.726Z,14.35
2023-04-04T19:33:39.919Z,7.38
2023-04-04T19:36:12.073Z,6.75
2023-04-04T19:38:42.520Z,7.70
2023-04-04T19:41:14.540Z,10.23
2023-04-04T19:43:45.587Z,8.30
2023-04-04T19:46:15.844Z,8.20
2023-04-04T19:48:48.558Z,15.43
2023-04-04T19:51:53.185Z,10.45
2023-04-04T19:54:26.772Z,14.88
2023-04-04T19:57:00.342Z,13.27
2023-04-04T20:00:01.927Z,8.07
2023-04-04T20:02:50.180Z,9.38
2023-04-04T20:06:03.181Z,9.73
2023-04-04T20:08:39.485Z,11.38
2023-04-04T20:11:08.103Z,11.77
2023-04-04T20:13:37.758Z,12.18
2023-04-04T20:16:12.159Z,11.80
2023-04-04T20:18:41.279Z,11.32
2023-04-04T20:21:11.887Z,5.80
2023-04-04T20:23:45.834Z,6.50
2023-04-04T20:26:16.288Z,9.52
2023-04-04T20:28:46.783Z,9.68
2023-04-04T20:31:18.619Z,10.50
2023-04-04T20:33:47.285Z,9.70
2023-04-04T20:36:33.850Z,12.45
2023-04-04T20:39:01.967Z,10.93
2023-04-04T20:41:30.085Z,15.30
2023-04-04T20:43:59.315Z,19.02
2023-04-04T20:46:37.460Z,12.30
2023-04-04T20:49:06.617Z,17.27
2023-04-04T20:51:35.022Z,13.68
2023-04-04T20:54:04.032Z,12.05
2023-04-04T20:56:52.321Z,79.88
2023-04-04T20:59:31.853Z,33.15
2023-04-04T21:02:09.719Z,38.13
2023-04-04T21:04:38.392Z,34.22
2023-04-04T21:07:07.469Z,27.42
2023-04-04T21:09:35.614Z,21.98
2023-04-04T21:12:03.918Z,15.32
2023-04-04T21:14:37.403Z,31.20
2023-04-04T21:17:09.464Z,24.30
2023-04-04T21:19:37.571Z,21.67
2023-04-04T21:22:07.524Z,14.05
2023-04-04T21:24:37.026Z,5.32
2023-04-04T21:27:08.024Z,19.10
2023-04-04T21:29:36.897Z,17.27
2023-04-04T21:32:08.477Z,16.92
2023-04-04T21:34:36.683Z,17.88
2023-04-04T21:37:07.350Z,12.93
2023-04-04T21:39:36.819Z,18.23
2023-04-04T21:42:08.545Z,11.02
2023-04-04T21:44:38.425Z,15.30
2023-04-04T21:47:08.007Z,14.18
2023-04-04T21:49:36.141Z,13.55
2023-04-04T21:52:04.342Z,11.93
2023-04-04T21:54:32.556Z,12.20
2023-04-04T21:57:00.621Z,18.38
2023-04-04T21:59:29.030Z,10.57
2023-04-04T22:01:57.297Z,9.80
2023-04-04T22:04:27.237Z,13.48
2023-04-04T22:06:55.442Z,10.05
2023-04-04T22:09:25.746Z,14.70
2023-04-04T22:11:58.835Z,8.63
2023-04-04T22:14:27.354Z,8.30
2023-04-04T22:16:58.831Z,14.45
2023-04-04T22:19:43.907Z,11.82
2023-04-04T22:22:13.636Z,19.73
2023-04-04T22:24:41.913Z,13.38
2023-04-04T22:27:09.996Z,10.77
2023-04-04T22:29:38.093Z,9.07
2023-04-04T22:32:06.630Z,7.53
2023-04-04T22:34:37.161Z,12.23
2023-04-04T22:37:05.544Z,11.15
2023-04-04T22:39:34.728Z,15.10
2023-04-04T22:42:02.794Z,9.88
2023-04-04T22:44:30.897Z,11.75
2023-04-04T22:46:59.033Z,13.75
2023-04-04T22:49:27.293Z,12.60
2023-04-04T22:51:56.764Z,13.02
2023-04-04T22:54:25.089Z,10.88
2023-04-04T22:56:53.261Z,11.88
2023-04-04T22:59:21.369Z,14.07
2023-04-04T23:01:49.540Z,13.45
2023-04-04T23:04:17.959Z,10.77
2023-04-04T23:06:46.423Z,14.20
2023-04-04T23:09:16.097Z,11.05
2023-04-04T23:11:44.159Z,16.05
2023-04-04T23:14:14.797Z,13.82
2023-04-04T23:16:43.606Z,16.02
2023-04-04T23:19:11.998Z,13.18
2023-04-04T23:21:40.600Z,12.57
2023-04-04T23:24:08.814Z,12.18
2023-04-04T23:26:38.280Z,13.43
2023-04-04T23:29:06.652Z,11.48
2023-04-04T23:31:36.444Z,12.00
2023-04-04T23:34:04.613Z,17.63
2023-04-04T23:36:32.758Z,9.80
2023-04-04T23:39:00.828Z,13.32
2023-04-04T23:41:28.967Z,13.98
2023-04-04T23:43:58.421Z,11.18
2023-04-04T23:46:27.063Z,17.00
2023-04-04T23:48:55.451Z,15.48
2023-04-04T23:51:23.561Z,15.60
2023-04-04T23:53:51.657Z,16.63
2023-04-04T23:56:19.781Z,13.95
2023-04-04T23:58:47.879Z,13.68
